sensor_id;sensor_type;location;lat;lon;timestamp;pressure;altitude;pressure_sealevel;temperature;humidity
75585;BME280;64162;53.508;10.476;2022-12-07T00:01:36;100747.03;;;3.26;85.08
75585;BME280;64162;53.508;10.476;2022-12-07T00:04:05;100737.38;;;3.28;85.28
75585;BME280;64162;53.508;10.476;2022-12-07T00:06:38;100739.06;;;3.29;85.31
75585;BME280;64162;53.508;10.476;2022-12-07T00:09:06;100751.16;;;3.30;85.46
75585;BME280;64162;53.508;10.476;2022-12-07T00:11:33;100741.31;;;3.37;84.84
75585;BME280;64162;53.508;10.476;2022-12-07T00:14:02;100740.69;;;3.31;85.46
75585;BME280;64162;53.508;10.476;2022-12-07T00:16:31;100723.22;;;3.34;85.32
75585;BME280;64162;53.508;10.476;2022-12-07T00:18:59;100726.44;;;3.39;85.31
75585;BME280;64162;53.508;10.476;2022-12-07T00:21:28;100716.56;;;3.45;85.32
75585;BME280;64162;53.508;10.476;2022-12-07T00:23:56;100708.50;;;3.50;85.14
75585;BME280;64162;53.508;10.476;2022-12-07T00:26:28;100705.59;;;3.56;85.01
75585;BME280;64162;53.508;10.476;2022-12-07T00:29:01;100689.34;;;3.51;85.33
75585;BME280;64162;53.508;10.476;2022-12-07T00:31:31;100691.81;;;3.54;85.20
75585;BME280;64162;53.508;10.476;2022-12-07T00:33:59;100683.91;;;3.55;85.50
75585;BME280;64162;53.508;10.476;2022-12-07T00:36:26;100690.28;;;3.50;85.36
75585;BME280;64162;53.508;10.476;2022-12-07T00:38:58;100687.19;;;3.59;85.06
75585;BME280;64162;53.508;10.476;2022-12-07T00:41:26;100682.16;;;3.56;85.59
75585;BME280;64162;53.508;10.476;2022-12-07T00:43:54;100684.53;;;3.60;85.46
75585;BME280;64162;53.508;10.476;2022-12-07T00:46:21;100673.88;;;3.65;85.23
75585;BME280;64162;53.508;10.476;2022-12-07T00:48:48;100676.31;;;3.68;85.19
75585;BME280;64162;53.508;10.476;2022-12-07T00:51:17;100670.19;;;3.69;85.08
75585;BME280;64162;53.508;10.476;2022-12-07T00:53:45;100657.94;;;3.71;85.17
75585;BME280;64162;53.508;10.476;2022-12-07T00:56:14;100657.00;;;3.72;85.09
75585;BME280;64162;53.508;10.476;2022-12-07T00:58:41;100656.16;;;3.72;85.12
75585;BME280;64162;53.508;10.476;2022-12-07T01:01:08;100650.72;;;3.76;84.98
75585;BME280;64162;53.508;10.476;2022-12-07T01:03:36;100651.63;;;3.75;85.46
75585;BME280;64162;53.508;10.476;2022-12-07T01:06:03;100645.50;;;3.76;85.19
75585;BME280;64162;53.508;10.476;2022-12-07T01:08:30;100631.31;;;3.82;84.90
75585;BME280;64162;53.508;10.476;2022-12-07T01:11:05;100627.72;;;3.84;85.04
75585;BME280;64162;53.508;10.476;2022-12-07T01:13:33;100631.41;;;3.80;84.95
75585;BME280;64162;53.508;10.476;2022-12-07T01:16:03;100643.34;;;3.84;84.93
75585;BME280;64162;53.508;10.476;2022-12-07T01:18:32;100637.97;;;3.87;85.32
75585;BME280;64162;53.508;10.476;2022-12-07T01:21:04;100633.44;;;3.91;85.10
75585;BME280;64162;53.508;10.476;2022-12-07T01:23:33;100641.25;;;3.91;85.22
75585;BME280;64162;53.508;10.476;2022-12-07T01:26:01;100633.44;;;3.91;84.95
75585;BME280;64162;53.508;10.476;2022-12-07T01:28:28;100633.28;;;3.94;84.90
75585;BME280;64162;53.508;10.476;2022-12-07T01:33:23;100627.78;;;3.83;85.18
75585;BME280;64162;53.508;10.476;2022-12-07T01:35:49;100621.16;;;3.93;85.17
75585;BME280;64162;53.508;10.476;2022-12-07T01:38:16;100622.94;;;3.92;85.15
75585;BME280;64162;53.508;10.476;2022-12-07T01:40:43;100620.16;;;3.95;85.43
75585;BME280;64162;53.508;10.476;2022-12-07T01:43:18;100627.22;;;3.93;85.44
75585;BME280;64162;53.508;10.476;2022-12-07T01:45:45;100618.84;;;4.04;85.16
75585;BME280;64162;53.508;10.476;2022-12-07T01:48:15;100612.66;;;4.05;84.81
75585;BME280;64162;53.508;10.476;2022-12-07T01:50:45;100615.03;;;4.10;84.89
75585;BME280;64162;53.508;10.476;2022-12-07T01:53:13;100621.53;;;4.03;85.02
75585;BME280;64162;53.508;10.476;2022-12-07T01:55:42;100618.56;;;4.09;84.96
75585;BME280;64162;53.508;10.476;2022-12-07T01:58:10;100610.50;;;4.13;84.86
75585;BME280;64162;53.508;10.476;2022-12-07T02:00:39;100616.38;;;4.17;85.07
75585;BME280;64162;53.508;10.476;2022-12-07T02:03:40;100619.75;;;4.19;84.79
75585;BME280;64162;53.508;10.476;2022-12-07T02:06:08;100614.53;;;4.19;85.03
75585;BME280;64162;53.508;10.476;2022-12-07T02:08:36;100609.31;;;4.19;84.58
75585;BME280;64162;53.508;10.476;2022-12-07T02:11:04;100607.56;;;4.19;84.81
75585;BME280;64162;53.508;10.476;2022-12-07T02:13:35;100600.41;;;4.23;84.35
75585;BME280;64162;53.508;10.476;2022-12-07T02:18:54;100602.25;;;4.05;84.91
75585;BME280;64162;53.508;10.476;2022-12-07T02:21:40;100606.63;;;4.05;84.89
75585;BME280;64162;53.508;10.476;2022-12-07T02:24:14;100605.94;;;4.17;84.59
75585;BME280;64162;53.508;10.476;2022-12-07T02:32:59;100591.41;;;4.13;84.71
75585;BME280;64162;53.508;10.476;2022-12-07T02:35:09;100587.03;;;4.13;84.88
75585;BME280;64162;53.508;10.476;2022-12-07T02:40:41;100580.13;;;4.12;84.37
75585;BME280;64162;53.508;10.476;2022-12-07T02:43:26;100582.75;;;4.12;84.64
75585;BME280;64162;53.508;10.476;2022-12-07T02:46:00;100580.47;;;4.06;84.99
75585;BME280;64162;53.508;10.476;2022-12-07T02:48:28;100577.22;;;4.03;84.86
75585;BME280;64162;53.508;10.476;2022-12-07T02:50:55;100584.94;;;4.04;85.37
75585;BME280;64162;53.508;10.476;2022-12-07T02:53:48;100581.00;;;3.97;85.16
75585;BME280;64162;53.508;10.476;2022-12-07T03:07:54;100576.94;;;4.07;84.56
75585;BME280;64162;53.508;10.476;2022-12-07T03:16:15;100589.78;;;3.79;85.18
75585;BME280;64162;53.508;10.476;2022-12-07T03:18:50;100582.75;;;3.96;84.52
75585;BME280;64162;53.508;10.476;2022-12-07T03:21:21;100572.56;;;3.92;84.81
75585;BME280;64162;53.508;10.476;2022-12-07T03:23:54;100577.69;;;3.93;84.54
75585;BME280;64162;53.508;10.476;2022-12-07T03:26:24;100576.03;;;3.92;84.36
75585;BME280;64162;53.508;10.476;2022-12-07T03:28:59;100570.63;;;3.80;84.43
75585;BME280;64162;53.508;10.476;2022-12-07T03:31:31;100564.13;;;3.71;84.12
75585;BME280;64162;53.508;10.476;2022-12-07T03:34:16;100567.75;;;3.69;84.03
75585;BME280;64162;53.508;10.476;2022-12-07T03:36:50;100568.97;;;3.61;83.77
75585;BME280;64162;53.508;10.476;2022-12-07T03:39:25;100568.78;;;3.49;83.70
75585;BME280;64162;53.508;10.476;2022-12-07T03:41:54;100573.41;;;3.44;83.81
75585;BME280;64162;53.508;10.476;2022-12-07T03:44:22;100563.47;;;3.35;84.05
75585;BME280;64162;53.508;10.476;2022-12-07T03:50:13;100565.25;;;3.17;85.20
75585;BME280;64162;53.508;10.476;2022-12-07T03:52:45;100580.94;;;2.98;85.69
75585;BME280;64162;53.508;10.476;2022-12-07T03:55:28;100585.31;;;3.15;85.43
75585;BME280;64162;53.508;10.476;2022-12-07T03:58:00;100584.31;;;3.17;85.10
75585;BME280;64162;53.508;10.476;2022-12-07T04:00:27;100585.78;;;3.06;85.74
75585;BME280;64162;53.508;10.476;2022-12-07T04:02:55;100580.88;;;3.17;85.16
75585;BME280;64162;53.508;10.476;2022-12-07T04:05:28;100584.78;;;3.25;84.55
75585;BME280;64162;53.508;10.476;2022-12-07T04:07:55;100584.53;;;3.13;85.23
75585;BME280;64162;53.508;10.476;2022-12-07T04:10:21;100592.66;;;3.24;84.79
75585;BME280;64162;53.508;10.476;2022-12-07T04:12:48;100590.59;;;3.13;85.17
75585;BME280;64162;53.508;10.476;2022-12-07T04:15:14;100582.63;;;3.16;84.71
75585;BME280;64162;53.508;10.476;2022-12-07T04:17:41;100582.03;;;3.11;84.56
75585;BME280;64162;53.508;10.476;2022-12-07T04:20:08;100581.78;;;3.16;84.65
75585;BME280;64162;53.508;10.476;2022-12-07T04:22:35;100582.72;;;2.97;84.25
75585;BME280;64162;53.508;10.476;2022-12-07T04:25:01;100584.75;;;2.91;84.25
75585;BME280;64162;53.508;10.476;2022-12-07T04:27:28;100583.34;;;2.85;84.50
75585;BME280;64162;53.508;10.476;2022-12-07T04:29:55;100583.88;;;2.75;84.42
75585;BME280;64162;53.508;10.476;2022-12-07T04:32:23;100589.91;;;2.75;84.73
75585;BME280;64162;53.508;10.476;2022-12-07T04:34:50;100587.81;;;2.64;84.07
75585;BME280;64162;53.508;10.476;2022-12-07T04:37:19;100596.53;;;2.63;83.81
75585;BME280;64162;53.508;10.476;2022-12-07T04:39:45;100588.03;;;2.60;83.79
75585;BME280;64162;53.508;10.476;2022-12-07T04:42:12;100589.00;;;2.40;84.70
75585;BME280;64162;53.508;10.476;2022-12-07T04:44:39;100589.63;;;2.45;84.88
75585;BME280;64162;53.508;10.476;2022-12-07T04:47:06;100589.13;;;2.37;85.69
75585;BME280;64162;53.508;10.476;2022-12-07T04:49:33;100595.16;;;2.56;85.26
75585;BME280;64162;53.508;10.476;2022-12-07T04:51:59;100590.47;;;2.46;85.72
75585;BME280;64162;53.508;10.476;2022-12-07T04:54:26;100605.34;;;2.42;85.39
75585;BME280;64162;53.508;10.476;2022-12-07T04:56:52;100609.13;;;2.54;85.06
75585;BME280;64162;53.508;10.476;2022-12-07T04:59:19;100601.47;;;2.51;84.86
75585;BME280;64162;53.508;10.476;2022-12-07T05:01:45;100606.41;;;2.38;85.18
75585;BME280;64162;53.508;10.476;2022-12-07T05:04:12;100608.38;;;2.33;85.27
75585;BME280;64162;53.508;10.476;2022-12-07T05:06:39;100608.03;;;2.41;85.29
75585;BME280;64162;53.508;10.476;2022-12-07T05:09:05;100606.50;;;2.37;85.33
75585;BME280;64162;53.508;10.476;2022-12-07T05:11:32;100605.44;;;2.41;85.43
75585;BME280;64162;53.508;10.476;2022-12-07T05:14:16;100606.25;;;2.24;85.40
75585;BME280;64162;53.508;10.476;2022-12-07T05:16:46;100598.59;;;2.21;85.03
75585;BME280;64162;53.508;10.476;2022-12-07T05:19:13;100613.84;;;2.28;85.31
75585;BME280;64162;53.508;10.476;2022-12-07T05:21:40;100605.25;;;2.26;85.30
75585;BME280;64162;53.508;10.476;2022-12-07T05:24:09;100599.84;;;2.31;85.02
75585;BME280;64162;53.508;10.476;2022-12-07T05:26:36;100613.59;;;2.33;85.32
75585;BME280;64162;53.508;10.476;2022-12-07T05:29:02;100609.75;;;2.23;85.34
75585;BME280;64162;53.508;10.476;2022-12-07T05:31:29;100608.94;;;2.40;85.34
75585;BME280;64162;53.508;10.476;2022-12-07T05:33:56;100608.47;;;2.31;85.62
75585;BME280;64162;53.508;10.476;2022-12-07T05:36:22;100613.59;;;2.33;84.64
75585;BME280;64162;53.508;10.476;2022-12-07T05:38:49;100612.34;;;2.23;84.30
75585;BME280;64162;53.508;10.476;2022-12-07T05:41:18;100612.34;;;2.04;84.29
75585;BME280;64162;53.508;10.476;2022-12-07T05:44:04;100609.81;;;2.03;84.10
75585;BME280;64162;53.508;10.476;2022-12-07T05:46:31;100615.16;;;1.99;83.72
75585;BME280;64162;53.508;10.476;2022-12-07T05:48:57;100612.00;;;1.93;83.38
75585;BME280;64162;53.508;10.476;2022-12-07T05:51:24;100607.00;;;1.70;83.80
75585;BME280;64162;53.508;10.476;2022-12-07T05:53:51;100614.28;;;1.61;83.84
75585;BME280;64162;53.508;10.476;2022-12-07T05:56:17;100606.63;;;1.58;83.57
75585;BME280;64162;53.508;10.476;2022-12-07T05:58:44;100613.06;;;1.50;83.68
75585;BME280;64162;53.508;10.476;2022-12-07T06:01:29;100606.91;;;1.32;83.87
75585;BME280;64162;53.508;10.476;2022-12-07T06:03:56;100599.81;;;1.36;84.15
75585;BME280;64162;53.508;10.476;2022-12-07T06:06:22;100609.69;;;1.27;84.36
75585;BME280;64162;53.508;10.476;2022-12-07T06:08:49;100596.78;;;1.26;84.31
75585;BME280;64162;53.508;10.476;2022-12-07T06:11:16;100603.13;;;1.19;84.23
75585;BME280;64162;53.508;10.476;2022-12-07T06:14:04;100600.13;;;1.09;84.43
75585;BME280;64162;53.508;10.476;2022-12-07T06:16:30;100596.03;;;1.04;83.96
75585;BME280;64162;53.508;10.476;2022-12-07T06:18:57;100598.28;;;0.91;84.53
75585;BME280;64162;53.508;10.476;2022-12-07T06:21:24;100594.97;;;0.87;84.18
75585;BME280;64162;53.508;10.476;2022-12-07T06:23:52;100598.91;;;0.76;84.25
75585;BME280;64162;53.508;10.476;2022-12-07T06:26:19;100611.13;;;0.72;84.73
75585;BME280;64162;53.508;10.476;2022-12-07T06:28:46;100598.34;;;0.68;84.46
75585;BME280;64162;53.508;10.476;2022-12-07T06:31:13;100600.22;;;0.64;84.91
75585;BME280;64162;53.508;10.476;2022-12-07T06:33:40;100604.84;;;0.57;84.42
75585;BME280;64162;53.508;10.476;2022-12-07T06:36:07;100601.59;;;0.52;84.94
75585;BME280;64162;53.508;10.476;2022-12-07T06:38:34;100606.91;;;0.49;84.27
75585;BME280;64162;53.508;10.476;2022-12-07T06:41:01;100597.50;;;0.47;84.86
75585;BME280;64162;53.508;10.476;2022-12-07T06:43:28;100595.13;;;0.41;84.91
75585;BME280;64162;53.508;10.476;2022-12-07T06:45:54;100604.66;;;0.40;85.10
75585;BME280;64162;53.508;10.476;2022-12-07T06:48:21;100609.06;;;0.38;84.88
75585;BME280;64162;53.508;10.476;2022-12-07T06:50:48;100601.22;;;0.40;85.38
75585;BME280;64162;53.508;10.476;2022-12-07T06:53:18;100594.28;;;0.40;85.42
75585;BME280;64162;53.508;10.476;2022-12-07T06:55:44;100595.03;;;0.44;85.76
75585;BME280;64162;53.508;10.476;2022-12-07T06:58:11;100593.28;;;0.44;85.86
75585;BME280;64162;53.508;10.476;2022-12-07T07:00:37;100587.25;;;0.44;85.80
75585;BME280;64162;53.508;10.476;2022-12-07T07:03:04;100588.94;;;0.45;86.09
75585;BME280;64162;53.508;10.476;2022-12-07T07:05:30;100597.56;;;0.45;85.28
75585;BME280;64162;53.508;10.476;2022-12-07T07:07:57;100605.22;;;0.48;86.33
75585;BME280;64162;53.508;10.476;2022-12-07T07:10:43;100600.81;;;0.50;85.86
75585;BME280;64162;53.508;10.476;2022-12-07T07:13:10;100607.56;;;0.54;85.87
75585;BME280;64162;53.508;10.476;2022-12-07T07:15:37;100598.03;;;0.55;85.65
75585;BME280;64162;53.508;10.476;2022-12-07T07:18:04;100613.31;;;0.61;85.98
75585;BME280;64162;53.508;10.476;2022-12-07T07:20:33;100601.91;;;0.65;86.05
75585;BME280;64162;53.508;10.476;2022-12-07T07:22:59;100614.75;;;0.68;86.10
75585;BME280;64162;53.508;10.476;2022-12-07T07:25:26;100612.88;;;0.72;86.00
75585;BME280;64162;53.508;10.476;2022-12-07T07:27:52;100613.50;;;0.78;85.94
75585;BME280;64162;53.508;10.476;2022-12-07T07:30:19;100599.56;;;0.81;85.87
75585;BME280;64162;53.508;10.476;2022-12-07T07:32:45;100602.03;;;0.84;86.13
75585;BME280;64162;53.508;10.476;2022-12-07T07:35:12;100602.63;;;0.90;86.27
75585;BME280;64162;53.508;10.476;2022-12-07T07:37:40;100606.91;;;0.91;85.91
75585;BME280;64162;53.508;10.476;2022-12-07T07:40:08;100610.03;;;0.99;85.79
75585;BME280;64162;53.508;10.476;2022-12-07T07:42:35;100613.28;;;1.05;85.94
75585;BME280;64162;53.508;10.476;2022-12-07T07:45:02;100608.22;;;1.02;86.03
75585;BME280;64162;53.508;10.476;2022-12-07T07:47:29;100613.22;;;1.06;85.47
75585;BME280;64162;53.508;10.476;2022-12-07T07:49:55;100617.31;;;1.12;85.92
75585;BME280;64162;53.508;10.476;2022-12-07T07:52:23;100619.50;;;1.21;85.14
75585;BME280;64162;53.508;10.476;2022-12-07T07:54:50;100622.84;;;1.23;85.60
75585;BME280;64162;53.508;10.476;2022-12-07T07:57:17;100633.88;;;1.28;85.71
75585;BME280;64162;53.508;10.476;2022-12-07T07:59:43;100625.44;;;1.23;85.57
75585;BME280;64162;53.508;10.476;2022-12-07T08:02:15;100618.91;;;1.35;85.72
75585;BME280;64162;53.508;10.476;2022-12-07T08:04:43;100621.03;;;1.25;85.75
75585;BME280;64162;53.508;10.476;2022-12-07T08:07:09;100621.25;;;1.41;85.51
75585;BME280;64162;53.508;10.476;2022-12-07T08:09:36;100626.56;;;1.38;86.09
75585;BME280;64162;53.508;10.476;2022-12-07T08:12:03;100629.41;;;1.52;85.67
75585;BME280;64162;53.508;10.476;2022-12-07T08:14:29;100621.50;;;1.55;85.25
75585;BME280;64162;53.508;10.476;2022-12-07T08:16:56;100628.88;;;1.64;85.80
75585;BME280;64162;53.508;10.476;2022-12-07T08:19:23;100617.25;;;1.73;85.35
75585;BME280;64162;53.508;10.476;2022-12-07T08:21:50;100626.44;;;1.80;85.54
75585;BME280;64162;53.508;10.476;2022-12-07T08:24:17;100625.72;;;1.76;85.81
75585;BME280;64162;53.508;10.476;2022-12-07T08:26:44;100630.50;;;1.85;85.49
75585;BME280;64162;53.508;10.476;2022-12-07T08:29:10;100623.16;;;1.95;85.09
75585;BME280;64162;53.508;10.476;2022-12-07T08:31:37;100623.59;;;2.05;84.76
75585;BME280;64162;53.508;10.476;2022-12-07T08:34:04;100621.84;;;2.05;85.03
75585;BME280;64162;53.508;10.476;2022-12-07T08:36:30;100629.16;;;2.16;84.63
75585;BME280;64162;53.508;10.476;2022-12-07T08:38:57;100623.88;;;2.17;84.82
75585;BME280;64162;53.508;10.476;2022-12-07T08:41:43;100621.13;;;2.20;85.11
75585;BME280;64162;53.508;10.476;2022-12-07T08:44:10;100620.84;;;2.26;84.55
75585;BME280;64162;53.508;10.476;2022-12-07T08:46:40;100616.25;;;2.31;84.45
75585;BME280;64162;53.508;10.476;2022-12-07T08:49:13;100622.47;;;2.29;84.35
75585;BME280;64162;53.508;10.476;2022-12-07T08:51:42;100624.41;;;2.43;83.92
75585;BME280;64162;53.508;10.476;2022-12-07T08:54:12;100619.91;;;2.46;83.87
75585;BME280;64162;53.508;10.476;2022-12-07T08:56:40;100621.59;;;2.47;83.61
75585;BME280;64162;53.508;10.476;2022-12-07T08:59:08;100628.19;;;2.54;83.74
75585;BME280;64162;53.508;10.476;2022-12-07T09:01:34;100625.22;;;2.62;83.82
75585;BME280;64162;53.508;10.476;2022-12-07T09:04:01;100637.94;;;2.68;83.47
75585;BME280;64162;53.508;10.476;2022-12-07T09:06:28;100621.28;;;2.72;83.63
75585;BME280;64162;53.508;10.476;2022-12-07T09:08:58;100629.69;;;2.77;83.58
75585;BME280;64162;53.508;10.476;2022-12-07T09:11:27;100619.00;;;2.83;82.86
75585;BME280;64162;53.508;10.476;2022-12-07T09:13:54;100626.41;;;2.91;83.08
75585;BME280;64162;53.508;10.476;2022-12-07T09:16:21;100637.81;;;2.88;83.39
75585;BME280;64162;53.508;10.476;2022-12-07T09:18:50;100629.00;;;2.91;83.21
75585;BME280;64162;53.508;10.476;2022-12-07T09:21:16;100635.06;;;3.09;83.06
75585;BME280;64162;53.508;10.476;2022-12-07T09:23:43;100625.34;;;3.29;82.57
75585;BME280;64162;53.508;10.476;2022-12-07T09:26:10;100627.75;;;3.50;82.51
75585;BME280;64162;53.508;10.476;2022-12-07T09:28:37;100629.97;;;3.57;82.33
75585;BME280;64162;53.508;10.476;2022-12-07T09:31:04;100626.66;;;3.71;81.91
75585;BME280;64162;53.508;10.476;2022-12-07T09:33:58;100630.22;;;3.86;81.92
75585;BME280;64162;53.508;10.476;2022-12-07T09:36:25;100632.97;;;4.00;81.82
75585;BME280;64162;53.508;10.476;2022-12-07T09:38:52;100628.22;;;4.07;81.35
75585;BME280;64162;53.508;10.476;2022-12-07T09:41:19;100639.25;;;4.12;81.31
75585;BME280;64162;53.508;10.476;2022-12-07T09:43:46;100636.00;;;4.24;80.92
75585;BME280;64162;53.508;10.476;2022-12-07T09:46:15;100640.63;;;4.35;80.72
75585;BME280;64162;53.508;10.476;2022-12-07T09:48:43;100628.69;;;4.46;80.79
75585;BME280;64162;53.508;10.476;2022-12-07T09:51:22;100622.13;;;4.55;80.60
75585;BME280;64162;53.508;10.476;2022-12-07T09:53:52;100631.00;;;4.67;80.60
75585;BME280;64162;53.508;10.476;2022-12-07T09:56:19;100623.69;;;4.73;80.22
75585;BME280;64162;53.508;10.476;2022-12-07T09:58:47;100626.09;;;4.76;80.50
75585;BME280;64162;53.508;10.476;2022-12-07T10:01:19;100628.56;;;4.79;80.35
75585;BME280;64162;53.508;10.476;2022-12-07T10:03:51;100630.97;;;4.98;79.97
75585;BME280;64162;53.508;10.476;2022-12-07T10:06:19;100616.81;;;5.02;80.06
75585;BME280;64162;53.508;10.476;2022-12-07T10:08:46;100624.09;;;5.11;80.12
75585;BME280;64162;53.508;10.476;2022-12-07T10:11:12;100620.84;;;5.22;79.42
75585;BME280;64162;53.508;10.476;2022-12-07T10:16:31;100611.38;;;5.35;78.62
75585;BME280;64162;53.508;10.476;2022-12-07T10:19:18;100619.41;;;5.46;78.63
75585;BME280;64162;53.508;10.476;2022-12-07T10:24:36;100605.72;;;5.57;77.80
75585;BME280;64162;53.508;10.476;2022-12-07T10:27:17;100606.00;;;5.67;78.12
75585;BME280;64162;53.508;10.476;2022-12-07T10:29:52;100610.19;;;5.69;78.07
75585;BME280;64162;53.508;10.476;2022-12-07T10:34:46;100607.78;;;5.66;78.10
75585;BME280;64162;53.508;10.476;2022-12-07T10:37:18;100601.59;;;5.81;77.67
75585;BME280;64162;53.508;10.476;2022-12-07T10:39:51;100609.34;;;5.69;78.63
75585;BME280;64162;53.508;10.476;2022-12-07T10:42:21;100599.09;;;5.66;77.59
75585;BME280;64162;53.508;10.476;2022-12-07T10:44:50;100609.28;;;5.99;76.98
75585;BME280;64162;53.508;10.476;2022-12-07T10:47:39;100599.19;;;5.92;77.29
75585;BME280;64162;53.508;10.476;2022-12-07T10:59:18;100598.06;;;5.96;76.56
75585;BME280;64162;53.508;10.476;2022-12-07T11:02:06;100587.50;;;5.70;76.38
75585;BME280;64162;53.508;10.476;2022-12-07T11:05:02;100587.25;;;5.74;76.43
75585;BME280;64162;53.508;10.476;2022-12-07T11:07:47;100584.16;;;5.68;76.13
75585;BME280;64162;53.508;10.476;2022-12-07T11:13:14;100588.53;;;5.95;76.72
75585;BME280;64162;53.508;10.476;2022-12-07T11:18:43;100582.75;;;5.90;76.35
75585;BME280;64162;53.508;10.476;2022-12-07T11:21:20;100578.63;;;6.01;76.56
75585;BME280;64162;53.508;10.476;2022-12-07T11:24:22;100575.28;;;5.99;76.43
75585;BME280;64162;53.508;10.476;2022-12-07T11:29:42;100567.44;;;5.99;76.04
75585;BME280;64162;53.508;10.476;2022-12-07T11:35:24;100566.78;;;5.95;75.91
75585;BME280;64162;53.508;10.476;2022-12-07T11:38:00;100547.25;;;5.86;75.86
75585;BME280;64162;53.508;10.476;2022-12-07T11:40:33;100566.69;;;5.96;75.90
75585;BME280;64162;53.508;10.476;2022-12-07T11:43:09;100559.88;;;5.94;75.83
75585;BME280;64162;53.508;10.476;2022-12-07T11:45:44;100560.44;;;5.99;74.75
75585;BME280;64162;53.508;10.476;2022-12-07T11:48:27;100565.19;;;5.92;75.61
75585;BME280;64162;53.508;10.476;2022-12-07T11:51:00;100556.13;;;5.98;76.17
75585;BME280;64162;53.508;10.476;2022-12-07T12:01:13;100557.69;;;6.15;75.26
75585;BME280;64162;53.508;10.476;2022-12-07T12:03:46;100556.22;;;6.11;75.04
75585;BME280;64162;53.508;10.476;2022-12-07T12:06:18;100548.56;;;5.93;74.45
75585;BME280;64162;53.508;10.476;2022-12-07T12:08:59;100552.09;;;6.07;73.73
75585;BME280;64162;53.508;10.476;2022-12-07T12:20:32;100552.38;;;5.88;73.60
75585;BME280;64162;53.508;10.476;2022-12-07T12:23:22;100554.94;;;5.89;73.74
75585;BME280;64162;53.508;10.476;2022-12-07T12:25:54;100553.91;;;5.63;74.49
75585;BME280;64162;53.508;10.476;2022-12-07T12:28:31;100549.81;;;5.74;73.87
75585;BME280;64162;53.508;10.476;2022-12-07T12:31:13;100548.41;;;5.68;74.34
75585;BME280;64162;53.508;10.476;2022-12-07T12:33:47;100547.28;;;5.58;74.22
75585;BME280;64162;53.508;10.476;2022-12-07T12:44:38;100542.97;;;5.28;74.89
75585;BME280;64162;53.508;10.476;2022-12-07T12:47:01;100542.31;;;5.39;74.91
75585;BME280;64162;53.508;10.476;2022-12-07T12:55:13;100536.63;;;5.47;74.45
75585;BME280;64162;53.508;10.476;2022-12-07T12:57:41;100535.97;;;5.15;73.32
75585;BME280;64162;53.508;10.476;2022-12-07T13:00:20;100542.13;;;5.28;72.38
75585;BME280;64162;53.508;10.476;2022-12-07T13:02:50;100539.69;;;4.96;71.02
75585;BME280;64162;53.508;10.476;2022-12-07T13:05:23;100549.19;;;4.97;71.34
75585;BME280;64162;53.508;10.476;2022-12-07T13:10:42;100544.19;;;5.09;70.81
75585;BME280;64162;53.508;10.476;2022-12-07T13:26:22;100546.88;;;5.21;69.41
75585;BME280;64162;53.508;10.476;2022-12-07T13:28:51;100546.50;;;5.27;69.68
75585;BME280;64162;53.508;10.476;2022-12-07T13:31:34;100541.25;;;4.99;68.19
75585;BME280;64162;53.508;10.476;2022-12-07T13:34:03;100548.25;;;4.98;66.56
75585;BME280;64162;53.508;10.476;2022-12-07T13:36:33;100545.38;;;5.03;65.47
75585;BME280;64162;53.508;10.476;2022-12-07T13:39:20;100548.53;;;4.94;65.16
75585;BME280;64162;53.508;10.476;2022-12-07T13:41:51;100543.97;;;4.68;63.52
75585;BME280;64162;53.508;10.476;2022-12-07T13:44:19;100551.13;;;4.64;64.01
75585;BME280;64162;53.508;10.476;2022-12-07T13:47:12;100568.00;;;4.58;65.42
75585;BME280;64162;53.508;10.476;2022-12-07T13:49:53;100565.59;;;4.40;63.97
75585;BME280;64162;53.508;10.476;2022-12-07T13:52:25;100560.78;;;4.48;63.68
75585;BME280;64162;53.508;10.476;2022-12-07T13:55:14;100563.63;;;4.43;63.66
75585;BME280;64162;53.508;10.476;2022-12-07T13:57:41;100574.91;;;4.28;64.29
75585;BME280;64162;53.508;10.476;2022-12-07T14:00:28;100574.53;;;4.04;63.34
75585;BME280;64162;53.508;10.476;2022-12-07T14:05:44;100570.06;;;3.90;63.56
75585;BME280;64162;53.508;10.476;2022-12-07T14:10:53;100571.91;;;3.88;65.35
75585;BME280;64162;53.508;10.476;2022-12-07T14:15:51;100569.06;;;3.60;66.33
75585;BME280;64162;53.508;10.476;2022-12-07T14:18:31;100572.81;;;3.54;65.97
75585;BME280;64162;53.508;10.476;2022-12-07T14:21:14;100569.63;;;3.49;65.98
75585;BME280;64162;53.508;10.476;2022-12-07T14:23:41;100570.44;;;3.34;65.85
75585;BME280;64162;53.508;10.476;2022-12-07T14:26:15;100576.19;;;3.23;67.15
75585;BME280;64162;53.508;10.476;2022-12-07T14:28:43;100567.53;;;3.23;66.90
75585;BME280;64162;53.508;10.476;2022-12-07T14:31:23;100571.69;;;3.10;67.36
75585;BME280;64162;53.508;10.476;2022-12-07T14:33:59;100564.09;;;3.05;66.71
75585;BME280;64162;53.508;10.476;2022-12-07T14:36:25;100565.78;;;2.89;67.64
75585;BME280;64162;53.508;10.476;2022-12-07T14:38:52;100561.16;;;2.78;67.46
75585;BME280;64162;53.508;10.476;2022-12-07T14:41:22;100568.19;;;2.76;67.73
75585;BME280;64162;53.508;10.476;2022-12-07T14:44:11;100563.72;;;2.61;67.53
75585;BME280;64162;53.508;10.476;2022-12-07T14:46:57;100564.59;;;2.43;67.87
75585;BME280;64162;53.508;10.476;2022-12-07T14:49:44;100566.50;;;2.39;67.63
75585;BME280;64162;53.508;10.476;2022-12-07T14:52:19;100562.75;;;2.27;68.47
75585;BME280;64162;53.508;10.476;2022-12-07T14:55:19;100566.06;;;2.12;69.34
75585;BME280;64162;53.508;10.476;2022-12-07T14:57:46;100562.69;;;2.10;69.87
75585;BME280;64162;53.508;10.476;2022-12-07T15:00:14;100561.72;;;1.94;70.21
75585;BME280;64162;53.508;10.476;2022-12-07T15:02:41;100566.75;;;1.78;71.06
75585;BME280;64162;53.508;10.476;2022-12-07T15:05:08;100571.00;;;1.62;70.05
75585;BME280;64162;53.508;10.476;2022-12-07T15:07:38;100569.63;;;1.53;69.77